Time;durP1;ratioP1;P1;durP2;ratioP2;P2;SDS_P1;SDS_P2;PMS_P1;PMS_P2;Temp;Humidity;BMP_temperature;BMP_pressure;BME280_temperature;BME280_humidity;BME280_pressure;Samples;Min_cycle;Max_cycle;Signal;HPM_P1;HPM_P2
2022/03/04 00:02:10;;;;;;;2.92;1.13;;;19.80;47.60;;;;;;4545993;31;20213;-62
2022/03/04 00:04:37;;;;;;;2.53;1.20;;;19.80;47.70;;;;;;4545612;31;20119;-62
2022/03/04 00:07:06;;;;;;;2.35;1.10;;;19.80;47.80;;;;;;4546344;31;20194;-61
2022/03/04 00:09:33;;;;;;;2.05;1.30;;;19.80;47.80;;;;;;4544792;31;20635;-62
2022/03/04 00:12:02;;;;;;;2.70;1.30;;;19.80;47.80;;;;;;4531793;31;20446;-62
2022/03/04 00:14:27;;;;;;;2.72;1.10;;;19.70;47.80;;;;;;4545530;31;20261;-62
2022/03/04 00:16:53;;;;;;;1.70;0.98;;;19.70;47.80;;;;;;4546070;31;20120;-62
2022/03/04 00:19:19;;;;;;;2.20;1.20;;;19.70;47.90;;;;;;4545693;31;20108;-62
2022/03/04 00:21:48;;;;;;;2.80;1.25;;;19.70;47.90;;;;;;4545507;31;20640;-62
2022/03/04 00:24:16;;;;;;;1.85;1.20;;;19.60;47.90;;;;;;4546323;31;20646;-62
2022/03/04 00:26:43;;;;;;;3.33;1.30;;;19.60;47.90;;;;;;4544811;31;20223;-62
2022/03/04 00:29:10;;;;;;;2.08;1.15;;;19.60;48.00;;;;;;4546033;31;20116;-62
2022/03/04 00:31:37;;;;;;;2.03;1.10;;;19.60;47.90;;;;;;4545205;31;20191;-62
2022/03/04 00:34:06;;;;;;;3.05;0.98;;;19.60;47.90;;;;;;4545674;31;20303;-62
2022/03/04 00:36:35;;;;;;;3.35;1.27;;;19.60;48.10;;;;;;4545530;31;20142;-61
2022/03/04 00:39:07;;;;;;;3.50;1.45;;;19.50;48.00;;;;;;4545088;31;20127;-62
2022/03/04 00:41:33;;;;;;;2.55;1.20;;;19.50;48.00;;;;;;4545796;31;20194;-61
2022/03/04 00:43:58;;;;;;;2.22;1.17;;;19.50;48.00;;;;;;4544839;31;20140;-62
2022/03/04 00:46:24;;;;;;;2.28;1.13;;;19.50;48.10;;;;;;4545776;31;20119;-62
2022/03/04 00:48:51;;;;;;;1.85;0.90;;;19.50;48.10;;;;;;4545050;31;20143;-61
2022/03/04 00:51:18;;;;;;;1.90;1.25;;;19.40;48.10;;;;;;4545677;31;20584;-62
2022/03/04 00:53:44;;;;;;;1.58;1.02;;;19.40;48.10;;;;;;4545582;31;20307;-61
2022/03/04 00:56:11;;;;;;;2.08;1.20;;;19.40;48.10;;;;;;4530175;31;20131;-62
2022/03/04 00:58:38;;;;;;;2.08;1.10;;;19.40;48.20;;;;;;4531533;31;20128;-61
2022/03/04 01:01:05;;;;;;;2.63;1.35;;;19.40;48.20;;;;;;4544565;31;20132;-61
2022/03/04 01:03:32;;;;;;;2.70;1.23;;;19.40;48.20;;;;;;4545722;31;20266;-62
2022/03/04 01:05:58;;;;;;;1.95;1.10;;;19.40;48.20;;;;;;4544902;31;20138;-62
2022/03/04 01:08:24;;;;;;;2.45;1.10;;;19.40;49.20;;;;;;4547541;31;20131;-62
2022/03/04 01:10:50;;;;;;;1.33;1.00;;;19.40;48.30;;;;;;4548513;31;20171;-61
2022/03/04 01:13:17;;;;;;;1.60;1.05;;;19.40;48.30;;;;;;4548202;31;20147;-62
2022/03/04 01:15:43;;;;;;;2.00;1.10;;;19.30;48.20;;;;;;4548974;31;20127;-62
2022/03/04 01:18:09;;;;;;;2.25;0.93;;;19.30;48.30;;;;;;4547756;31;20135;-61
2022/03/04 01:20:35;;;;;;;2.08;1.33;;;19.30;48.30;;;;;;4548648;31;20124;-61
2022/03/04 01:23:01;;;;;;;2.05;1.20;;;19.30;48.30;;;;;;4548163;31;20228;-61
2022/03/04 01:25:27;;;;;;;1.85;1.13;;;19.30;48.30;;;;;;4548434;31;20130;-62
2022/03/04 01:27:53;;;;;;;3.03;1.20;;;19.30;48.40;;;;;;4534015;31;20131;-62
2022/03/04 01:30:19;;;;;;;1.83;1.20;;;19.20;48.30;;;;;;4547957;31;20576;-62
2022/03/04 01:32:46;;;;;;;1.65;1.20;;;19.20;48.30;;;;;;4548812;31;20147;-61
2022/03/04 01:35:13;;;;;;;2.55;0.93;;;19.20;48.40;;;;;;4547360;31;20208;-62
2022/03/04 01:37:40;;;;;;;2.08;1.10;;;19.20;48.40;;;;;;4548495;31;20163;-61
2022/03/04 01:40:08;;;;;;;2.03;1.30;;;19.20;48.40;;;;;;4547602;31;20128;-62
2022/03/04 01:42:35;;;;;;;1.95;0.90;;;19.20;48.40;;;;;;4548344;31;20151;-61
2022/03/04 01:45:03;;;;;;;1.80;1.10;;;19.20;48.50;;;;;;4548059;31;20151;-61
2022/03/04 01:47:29;;;;;;;1.30;0.90;;;19.20;48.50;;;;;;4547789;31;20229;-62
2022/03/04 01:49:56;;;;;;;1.63;1.17;;;19.10;48.40;;;;;;4548463;31;20139;-62
2022/03/04 01:52:22;;;;;;;1.33;0.93;;;19.10;48.50;;;;;;4547318;31;20120;-62
2022/03/04 01:54:48;;;;;;;1.48;1.00;;;19.10;48.50;;;;;;4548265;31;20273;-61
2022/03/04 01:57:14;;;;;;;2.05;1.20;;;19.10;48.50;;;;;;4547420;31;20127;-61
2022/03/04 01:59:40;;;;;;;1.45;0.90;;;19.10;48.50;;;;;;4548001;31;20127;-62
2022/03/04 02:02:06;;;;;;;2.33;1.10;;;19.10;48.60;;;;;;4547878;31;20180;-61
2022/03/04 02:04:32;;;;;;;2.97;1.45;;;19.10;48.60;;;;;;4547514;31;20131;-61
2022/03/04 02:06:58;;;;;;;1.73;1.20;;;19.10;48.60;;;;;;4548122;31;20140;-62
2022/03/04 02:09:24;;;;;;;1.88;1.25;;;19.00;48.50;;;;;;4546759;31;20120;-61
2022/03/04 02:11:50;;;;;;;1.40;0.90;;;19.00;48.60;;;;;;4548193;31;20654;-61
2022/03/04 02:14:16;;;;;;;2.58;1.30;;;19.00;48.60;;;;;;4547280;31;20127;-62
2022/03/04 02:16:53;;;;;;;1.33;0.95;;;19.00;48.60;;;;;;4547848;31;20550;-62
2022/03/04 02:19:20;;;;;;;1.73;1.10;;;19.00;48.60;;;;;;4547009;31;20120;-62
2022/03/04 02:21:55;;;;;;;1.65;0.95;;;19.00;48.60;;;;;;4547280;31;20123;-62
2022/03/04 02:24:22;;;;;;;2.25;1.08;;;18.90;48.50;;;;;;4548078;31;20143;-61
2022/03/04 02:26:49;;;;;;;2.33;1.20;;;18.90;48.60;;;;;;4546843;31;20140;-61
2022/03/04 02:29:16;;;;;;;1.58;1.00;;;18.90;48.60;;;;;;4547861;31;20127;-62
2022/03/04 02:31:42;;;;;;;1.58;1.05;;;18.90;48.60;;;;;;4547008;31;20143;-61
2022/03/04 02:34:08;;;;;;;1.70;0.98;;;18.90;48.60;;;;;;4547505;31;20135;-62
2022/03/04 02:36:34;;;;;;;1.75;1.10;;;18.90;48.60;;;;;;4547249;31;20132;-61
2022/03/04 02:39:00;;;;;;;1.73;1.10;;;18.90;48.70;;;;;;4546885;31;20552;-62
2022/03/04 02:41:27;;;;;;;1.17;0.90;;;18.90;48.70;;;;;;4547687;31;20273;-61
2022/03/04 02:43:52;;;;;;;2.20;1.00;;;18.80;48.60;;;;;;4546312;31;20147;-61
2022/03/04 02:46:18;;;;;;;1.83;0.90;;;18.90;48.70;;;;;;4547565;31;20103;-61
2022/03/04 02:48:44;;;;;;;1.50;1.27;;;18.80;48.60;;;;;;4546624;31;20187;-61
2022/03/04 02:51:11;;;;;;;1.70;1.00;;;18.80;48.60;;;;;;4547134;31;20208;-61
2022/03/04 02:53:37;;;;;;;2.15;1.25;;;18.80;48.60;;;;;;4547428;31;20534;-61
2022/03/04 02:56:03;;;;;;;1.63;1.20;;;18.80;48.70;;;;;;4546614;31;20212;-61
2022/03/04 02:58:29;;;;;;;1.65;0.90;;;18.80;48.70;;;;;;4547637;31;20139;-61
2022/03/04 03:00:55;;;;;;;1.73;1.10;;;18.80;48.70;;;;;;4546256;31;20560;-61
2022/03/04 03:03:21;;;;;;;1.63;1.17;;;18.70;48.70;;;;;;4547234;31;20138;-61
2022/03/04 03:05:47;;;;;;;1.85;1.10;;;18.70;48.70;;;;;;4546504;31;20179;-62
2022/03/04 03:08:13;;;;;;;2.13;1.17;;;18.70;48.60;;;;;;4546832;31;20151;-62
2022/03/04 03:10:39;;;;;;;1.58;1.10;;;18.70;48.70;;;;;;4546625;31;20120;-61
2022/03/04 03:13:05;;;;;;;1.67;1.30;;;18.70;48.70;;;;;;4546480;31;20123;-62
2022/03/04 03:15:34;;;;;;;2.30;1.00;;;18.70;48.70;;;;;;4547331;31;20123;-61
2022/03/04 03:18:00;;;;;;;1.92;1.02;;;18.70;48.70;;;;;;4545794;31;20646;-61
2022/03/04 03:20:26;;;;;;;1.00;0.75;;;18.60;48.70;;;;;;4547088;31;20119;-61
2022/03/04 03:22:52;;;;;;;1.50;1.00;;;18.60;48.70;;;;;;4546194;31;20571;-61
2022/03/04 03:25:18;;;;;;;1.10;1.00;;;18.60;48.60;;;;;;4545975;31;20237;-61
2022/03/04 03:27:44;;;;;;;1.30;0.77;;;18.60;48.70;;;;;;4546584;31;20119;-62
2022/03/04 03:30:10;;;;;;;1.52;1.00;;;18.60;48.70;;;;;;4546088;31;20127;-62
2022/03/04 03:32:36;;;;;;;1.63;1.17;;;18.60;48.70;;;;;;4546939;31;20224;-61
2022/03/04 03:35:02;;;;;;;1.92;1.13;;;18.60;48.70;;;;;;4545728;31;20262;-61
2022/03/04 03:37:28;;;;;;;1.63;1.20;;;18.60;48.70;;;;;;4546648;31;20189;-61
2022/03/04 03:39:54;;;;;;;1.38;1.00;;;18.60;48.70;;;;;;4545792;31;20253;-61
2022/03/04 03:42:20;;;;;;;2.35;1.10;;;18.50;48.70;;;;;;4546607;31;20142;-61
2022/03/04 03:44:46;;;;;;;1.10;0.88;;;18.50;48.70;;;;;;4546249;31;20257;-61
2022/03/04 03:47:11;;;;;;;2.05;1.17;;;18.50;48.70;;;;;;4546018;31;20142;-62
2022/03/04 03:49:38;;;;;;;1.27;0.90;;;18.50;48.80;;;;;;4546636;31;20191;-61
2022/03/04 03:52:06;;;;;;;1.67;1.00;;;18.50;48.70;;;;;;4545378;31;20178;-62
2022/03/04 03:54:32;;;;;;;1.33;1.20;;;18.50;48.70;;;;;;4546670;31;20120;-61
2022/03/04 03:56:58;;;;;;;1.30;0.98;;;18.50;48.70;;;;;;4545436;31;20327;-62
2022/03/04 03:59:24;;;;;;;1.20;1.00;;;18.50;48.80;;;;;;4546339;31;20144;-61
2022/03/04 04:01:50;;;;;;;2.05;1.05;;;18.40;48.70;;;;;;4545948;31;20123;-61
2022/03/04 04:04:17;;;;;;;1.08;0.98;;;18.50;48.80;;;;;;4545773;31;20124;-62
2022/03/04 04:06:43;;;;;;;1.10;0.82;;;18.40;48.70;;;;;;4546369;31;20120;-61
2022/03/04 04:09:10;;;;;;;1.48;0.90;;;18.40;48.70;;;;;;4545402;31;20261;-61
2022/03/04 04:11:37;;;;;;;1.63;1.05;;;18.40;48.70;;;;;;4546329;31;20311;-61
2022/03/04 04:14:08;;;;;;;1.60;1.00;;;18.40;48.80;;;;;;4545320;31;20123;-61
2022/03/04 04:16:35;;;;;;;0.98;0.85;;;18.40;48.70;;;;;;4545890;31;20290;-61
2022/03/04 04:19:01;;;;;;;1.20;1.05;;;18.40;48.80;;;;;;4545693;31;20132;-61
2022/03/04 04:21:27;;;;;;;1.27;0.90;;;18.40;48.80;;;;;;4545458;31;20596;-61
2022/03/04 04:23:54;;;;;;;1.65;1.02;;;18.40;48.80;;;;;;4545979;31;20143;-61
2022/03/04 04:26:21;;;;;;;0.90;0.77;;;18.40;48.90;;;;;;4544832;31;20123;-62
2022/03/04 04:28:47;;;;;;;1.20;1.00;;;18.30;49.70;;;;;;4545406;31;20196;-61
2022/03/04 04:31:13;;;;;;;1.25;1.00;;;18.30;48.80;;;;;;4544328;31;20181;-61
2022/03/04 04:33:39;;;;;;;1.73;0.90;;;18.30;48.80;;;;;;4545107;31;20285;-61
2022/03/04 04:36:05;;;;;;;1.30;0.90;;;18.30;48.80;;;;;;4529462;31;20289;-61
2022/03/04 04:38:31;;;;;;;1.58;1.13;;;18.30;48.80;;;;;;4544593;31;20249;-61
2022/03/04 04:40:57;;;;;;;1.20;1.00;;;18.30;48.90;;;;;;4545072;31;20125;-61
2022/03/04 04:43:23;;;;;;;1.23;0.80;;;18.30;48.90;;;;;;4543527;31;20127;-61
2022/03/04 04:45:51;;;;;;;1.30;1.15;;;18.30;48.90;;;;;;4544884;31;20139;-61
2022/03/04 04:48:17;;;;;;;1.08;0.80;;;18.30;48.90;;;;;;4544283;31;20119;-61
2022/03/04 04:50:43;;;;;;;1.92;1.20;;;18.30;48.90;;;;;;4544822;31;20512;-61
2022/03/04 04:53:10;;;;;;;2.33;1.10;;;18.20;48.90;;;;;;4543774;31;20205;-61
2022/03/04 04:55:35;;;;;;;1.45;0.98;;;18.20;48.90;;;;;;4544033;31;20304;-61
2022/03/04 04:58:01;;;;;;;1.83;1.10;;;18.20;48.90;;;;;;4544135;31;20123;-61
2022/03/04 05:00:27;;;;;;;1.20;1.00;;;18.20;48.90;;;;;;4544105;31;20120;-61
2022/03/04 05:02:53;;;;;;;1.15;0.95;;;18.20;49.00;;;;;;4544860;31;20123;-61
2022/03/04 05:05:20;;;;;;;1.85;1.13;;;18.20;49.00;;;;;;4544101;31;20355;-61
2022/03/04 05:07:46;;;;;;;0.90;0.80;;;18.10;48.90;;;;;;4544943;31;20128;-61
2022/03/04 05:10:12;;;;;;;1.70;1.10;;;18.20;49.00;;;;;;4544108;31;20146;-61
2022/03/04 05:12:39;;;;;;;1.45;1.02;;;18.10;48.90;;;;;;4544268;31;20124;-61
2022/03/04 05:15:06;;;;;;;2.20;1.25;;;18.10;48.90;;;;;;4544147;31;20127;-61
2022/03/04 05:17:32;;;;;;;1.83;1.20;;;18.10;49.00;;;;;;4544508;31;20135;-62
2022/03/04 05:19:57;;;;;;;1.38;1.17;;;18.10;49.00;;;;;;4545898;31;20180;-61
2022/03/04 05:22:23;;;;;;;2.47;1.25;;;18.10;49.00;;;;;;4544430;31;20242;-61
2022/03/04 05:24:49;;;;;;;1.10;0.90;;;18.10;49.00;;;;;;4545409;31;20254;-61
2022/03/04 05:27:15;;;;;;;1.65;1.25;;;18.10;49.10;;;;;;4544891;31;20287;-61
2022/03/04 05:29:41;;;;;;;1.73;1.25;;;18.10;49.00;;;;;;4545272;31;20188;-61
2022/03/04 05:32:07;;;;;;;1.52;1.23;;;18.10;49.00;;;;;;4545459;31;20564;-61
2022/03/04 05:34:34;;;;;;;2.40;1.20;;;18.00;49.00;;;;;;4544740;31;20204;-61
2022/03/04 05:37:00;;;;;;;1.75;1.38;;;18.00;49.00;;;;;;4545417;31;20338;-61
2022/03/04 05:39:26;;;;;;;1.58;1.30;;;18.00;49.10;;;;;;4544616;31;20256;-61
2022/03/04 05:41:52;;;;;;;1.63;1.25;;;18.00;49.10;;;;;;4545257;31;20149;-61
2022/03/04 05:44:18;;;;;;;1.45;1.35;;;18.00;49.10;;;;;;4544648;31;20120;-61
2022/03/04 05:46:45;;;;;;;1.20;1.10;;;17.90;49.00;;;;;;4545310;31;20614;-61
2022/03/04 05:49:11;;;;;;;1.65;1.15;;;18.00;49.10;;;;;;4545050;31;20149;-61
2022/03/04 05:51:37;;;;;;;1.70;1.40;;;17.90;49.10;;;;;;4544861;31;20128;-62
2022/03/04 05:54:04;;;;;;;1.27;1.00;;;17.90;49.00;;;;;;4545689;31;20135;-61
2022/03/04 05:56:30;;;;;;;2.00;1.13;;;17.90;49.10;;;;;;4547326;31;20394;-61
2022/03/04 05:58:56;;;;;;;1.83;1.50;;;17.90;49.10;;;;;;4548521;31;20224;-61
2022/03/04 06:01:22;;;;;;;1.80;1.40;;;17.90;49.10;;;;;;4547337;31;20247;-61
2022/03/04 06:03:48;;;;;;;1.48;1.20;;;17.90;49.10;;;;;;4548093;31;20138;-61
2022/03/04 06:06:14;;;;;;;2.20;1.50;;;17.90;49.20;;;;;;4547677;31;20127;-61
2022/03/04 06:08:40;;;;;;;1.90;1.30;;;17.90;49.20;;;;;;4547644;31;20331;-61
2022/03/04 06:11:10;;;;;;;1.88;1.50;;;17.90;49.20;;;;;;4547844;31;20128;-61
2022/03/04 06:13:37;;;;;;;1.30;1.10;;;17.90;49.20;;;;;;4546892;31;20610;-62
2022/03/04 06:16:03;;;;;;;2.13;1.30;;;17.90;49.20;;;;;;4547968;31;20139;-61
2022/03/04 06:18:29;;;;;;;1.65;1.50;;;17.80;49.20;;;;;;4547048;31;20128;-61
2022/03/04 06:20:55;;;;;;;1.48;1.15;;;17.80;49.10;;;;;;4547853;31;20143;-62
2022/03/04 06:23:22;;;;;;;2.47;1.63;;;17.80;49.10;;;;;;4547491;31;20200;-61
2022/03/04 06:25:49;;;;;;;1.67;1.30;;;17.80;49.20;;;;;;4547257;31;20155;-61
2022/03/04 06:28:15;;;;;;;2.20;1.70;;;17.80;49.10;;;;;;4547788;31;20221;-61
2022/03/04 06:30:41;;;;;;;1.75;1.40;;;17.80;49.10;;;;;;4546646;31;20132;-61
2022/03/04 06:35:53;;;;;;;1.50;1.35;;;17.70;49.20;;;;;;4547142;31;20153;-61
2022/03/04 06:38:20;;;;;;;1.67;1.40;;;17.70;49.20;;;;;;4547145;31;20127;-61
2022/03/04 06:40:47;;;;;;;1.83;1.48;;;17.70;49.20;;;;;;4547129;31;20127;-61
2022/03/04 06:43:13;;;;;;;1.70;1.60;;;17.70;49.20;;;;;;4546762;31;20138;-61
2022/03/04 06:45:43;;;;;;;2.00;1.33;;;17.70;49.20;;;;;;4547713;31;20127;-61
2022/03/04 06:48:10;;;;;;;1.58;1.35;;;17.70;49.20;;;;;;4546685;31;20227;-61
2022/03/04 06:50:36;;;;;;;2.22;1.48;;;17.70;49.20;;;;;;4547264;31;20186;-61
2022/03/04 06:53:03;;;;;;;1.73;1.33;;;17.70;49.20;;;;;;4546689;31;20285;-61
2022/03/04 06:55:31;;;;;;;1.75;1.45;;;17.70;49.20;;;;;;4546824;31;20232;-61
2022/03/04 06:57:56;;;;;;;2.22;1.58;;;17.60;49.30;;;;;;4547226;31;20131;-61
2022/03/04 07:00:24;;;;;;;2.00;1.60;;;17.60;49.30;;;;;;4546337;31;20127;-61
2022/03/04 07:02:51;;;;;;;2.05;1.45;;;17.60;49.30;;;;;;4547363;31;20157;-61
2022/03/04 07:05:17;;;;;;;2.22;1.80;;;17.60;49.30;;;;;;4546136;31;20171;-61
2022/03/04 07:07:43;;;;;;;1.50;1.40;;;17.60;49.30;;;;;;4547289;31;20127;-61
2022/03/04 07:10:09;;;;;;;1.90;1.58;;;17.60;49.30;;;;;;4546349;31;20112;-61
2022/03/04 07:12:36;;;;;;;1.92;1.73;;;17.60;50.20;;;;;;4546893;31;20179;-61
2022/03/04 07:15:04;;;;;;;1.60;1.50;;;17.60;49.30;;;;;;4547050;31;20119;-61
2022/03/04 07:17:30;;;;;;;2.72;1.73;;;17.50;49.50;;;;;;4545928;31;20127;-61
2022/03/04 07:19:56;;;;;;;1.73;1.55;;;17.50;49.20;;;;;;4547289;31;20116;-61
2022/03/04 07:22:22;;;;;;;2.30;1.80;;;17.50;50.10;;;;;;4545862;31;20263;-61
2022/03/04 07:24:48;;;;;;;1.40;1.30;;;17.50;49.20;;;;;;4545852;31;20142;-61
2022/03/04 07:27:13;;;;;;;3.08;1.77;;;17.50;49.20;;;;;;4545443;31;20123;-61
2022/03/04 07:29:39;;;;;;;2.20;1.70;;;17.50;49.20;;;;;;4545387;31;20124;-61
2022/03/04 07:32:05;;;;;;;2.10;1.80;;;17.50;49.30;;;;;;4518137;31;20119;-61
2022/03/04 07:34:31;;;;;;;2.55;1.70;;;17.50;49.40;;;;;;4545199;31;20119;-61
2022/03/04 07:36:57;;;;;;;2.40;1.88;;;17.50;49.40;;;;;;4546101;31;20128;-61
2022/03/04 07:39:23;;;;;;;4.82;1.92;;;17.50;49.40;;;;;;4544510;31;20142;-62
2022/03/04 07:41:51;;;;;;;4.68;2.42;;;17.40;49.30;;;;;;4545562;31;20115;-61
2022/03/04 07:44:18;;;;;;;2.75;1.98;;;17.40;50.30;;;;;;4545869;31;20265;-61
2022/03/04 07:46:44;;;;;;;4.15;2.50;;;17.40;49.40;;;;;;4546165;31;20143;-61
2022/03/04 07:49:10;;;;;;;3.85;2.60;;;17.40;49.30;;;;;;4546349;31;20648;-62
2022/03/04 07:51:37;;;;;;;4.05;2.17;;;17.50;49.30;;;;;;4545645;31;20127;-62
2022/03/04 07:54:03;;;;;;;2.97;2.08;;;17.50;49.20;;;;;;4546762;31;20131;-61
2022/03/04 07:56:30;;;;;;;4.57;2.50;;;17.50;49.10;;;;;;4545412;31;20485;-62
2022/03/04 07:58:55;;;;;;;4.47;2.13;;;17.60;49.10;;;;;;4546454;31;20611;-62
2022/03/04 08:01:21;;;;;;;5.22;2.30;;;17.70;49.10;;;;;;4545451;31;20335;-62
2022/03/04 08:03:47;;;;;;;6.20;2.05;;;17.80;48.90;;;;;;4531899;31;20277;-61
2022/03/04 08:06:13;;;;;;;4.72;2.30;;;17.90;48.80;;;;;;4545897;31;20266;-62
2022/03/04 08:08:39;;;;;;;9.50;2.63;;;18.00;48.50;;;;;;4517349;31;20269;-61
2022/03/04 08:11:06;;;;;;;3.45;2.38;;;18.10;48.20;;;;;;4545432;31;20242;-62
2022/03/04 08:13:34;;;;;;;4.60;2.03;;;18.30;48.10;;;;;;4544260;31;20200;-62
2022/03/04 08:16:00;;;;;;;4.07;1.92;;;18.40;47.80;;;;;;4545367;31;20132;-62
2022/03/04 08:18:26;;;;;;;4.70;2.22;;;18.50;47.60;;;;;;4544152;31;20139;-62
2022/03/04 08:20:53;;;;;;;3.90;1.95;;;18.60;47.40;;;;;;4545020;31;20120;-62
2022/03/04 08:23:19;;;;;;;4.10;2.13;;;18.70;47.30;;;;;;4545004;31;20124;-62
2022/03/04 08:25:45;;;;;;;2.38;1.70;;;18.80;47.10;;;;;;4544789;31;20116;-61
2022/03/04 08:28:11;;;;;;;2.50;1.80;;;18.90;47.00;;;;;;4545388;31;20130;-61
2022/03/04 08:30:37;;;;;;;2.58;2.00;;;19.00;46.70;;;;;;4544221;31;20150;-61
2022/03/04 08:33:04;;;;;;;2.53;1.92;;;19.10;46.60;;;;;;4545514;31;20183;-61
2022/03/04 08:35:29;;;;;;;5.10;2.10;;;19.20;46.40;;;;;;4544222;31;20257;-61
2022/03/04 08:37:56;;;;;;;4.03;1.90;;;19.30;46.20;;;;;;4544919;31;20138;-61
2022/03/04 08:40:22;;;;;;;2.88;1.98;;;19.40;46.10;;;;;;4544606;31;20132;-61
2022/03/04 08:42:48;;;;;;;3.63;2.03;;;19.50;45.80;;;;;;4544692;31;20151;-61
2022/03/04 08:45:15;;;;;;;3.08;1.90;;;19.70;45.60;;;;;;4517615;31;20139;-61
2022/03/04 08:47:43;;;;;;;2.70;1.60;;;19.80;45.40;;;;;;4544117;31;20135;-61
2022/03/04 08:50:12;;;;;;;2.63;1.98;;;20.00;45.20;;;;;;4545300;31;20116;-61
2022/03/04 08:52:38;;;;;;;3.33;1.90;;;20.10;44.90;;;;;;4544318;31;20281;-61
2022/03/04 08:55:07;;;;;;;5.45;1.85;;;20.20;44.70;;;;;;4545034;31;20190;-61
2022/03/04 08:57:34;;;;;;;5.38;2.05;;;20.40;44.50;;;;;;4544789;31;20690;-61
2022/03/04 09:00:00;;;;;;;2.55;1.80;;;20.50;44.30;;;;;;4544474;31;20299;-61
2022/03/04 09:02:27;;;;;;;2.40;1.77;;;20.60;44.10;;;;;;4545075;31;20119;-62
2022/03/04 09:04:53;;;;;;;3.22;2.20;;;20.70;43.90;;;;;;4543966;31;20175;-61
2022/03/04 09:07:19;;;;;;;2.78;1.83;;;20.80;43.80;;;;;;4545268;31;20135;-62
2022/03/04 09:09:45;;;;;;;5.93;1.92;;;20.90;43.60;;;;;;4544141;31;20120;-62
2022/03/04 09:12:11;;;;;;;2.63;1.88;;;21.00;43.50;;;;;;4544609;31;20154;-61
2022/03/04 09:14:38;;;;;;;2.53;1.63;;;21.10;43.30;;;;;;4544228;31;20142;-61
2022/03/04 09:17:04;;;;;;;2.60;2.15;;;21.20;43.20;;;;;;4544561;31;20266;-62
2022/03/04 09:19:30;;;;;;;3.90;1.98;;;21.30;43.00;;;;;;4545619;31;20134;-62
2022/03/04 09:21:57;;;;;;;4.43;1.98;;;21.40;42.90;;;;;;4544333;31;20131;-62
2022/03/04 09:24:23;;;;;;;3.22;2.05;;;21.40;42.70;;;;;;4545704;31;20150;-61
2022/03/04 09:26:49;;;;;;;5.32;2.05;;;21.50;42.60;;;;;;4544164;31;20127;-62
2022/03/04 09:29:15;;;;;;;2.50;1.95;;;21.50;42.50;;;;;;4532293;31;20127;-62
2022/03/04 09:31:43;;;;;;;3.20;1.83;;;21.60;42.50;;;;;;4546824;31;20146;-62
2022/03/04 09:34:09;;;;;;;5.72;1.75;;;21.60;42.50;;;;;;4547572;31;20139;-62
2022/03/04 09:36:35;;;;;;;5.85;1.95;;;21.70;42.50;;;;;;4533148;31;20139;-62
2022/03/04 09:39:02;;;;;;;2.85;1.80;;;21.70;42.60;;;;;;4546868;31;20139;-61
2022/03/04 09:41:30;;;;;;;3.65;1.88;;;21.60;42.80;;;;;;4519844;31;20170;-62
2022/03/04 09:43:57;;;;;;;2.60;1.80;;;21.60;43.00;;;;;;4532317;31;20132;-61
2022/03/04 09:46:23;;;;;;;3.63;1.70;;;21.50;44.20;;;;;;4547579;31;20622;-62
2022/03/04 09:48:51;;;;;;;3.10;1.75;;;21.40;43.40;;;;;;4547014;31;20123;-63
2022/03/04 09:51:17;;;;;;;2.83;1.85;;;21.40;43.60;;;;;;4530632;31;20127;-63
2022/03/04 09:53:44;;;;;;;2.63;1.90;;;21.30;43.80;;;;;;4547514;31;20139;-62
2022/03/04 09:56:10;;;;;;;2.88;1.85;;;21.30;44.00;;;;;;4546485;31;20128;-62
2022/03/04 09:58:37;;;;;;;5.07;2.78;;;21.20;44.10;;;;;;4533317;31;20147;-62
2022/03/04 10:01:09;;;;;;;6.13;3.80;;;21.10;43.90;;;;;;4532186;31;20131;-63
2022/03/04 10:03:43;;;;;;;4.72;2.90;;;21.10;43.20;;;;;;4547255;31;20167;-64
2022/03/04 10:06:09;;;;;;;4.25;3.42;;;21.00;43.10;;;;;;4547314;31;20137;-63
2022/03/04 10:08:53;;;;;;;4.13;3.10;;;20.90;43.00;;;;;;4532271;31;20116;-64
2022/03/04 10:11:30;;;;;;;5.65;2.97;;;20.90;43.10;;;;;;4533060;31;20145;-64
2022/03/04 10:13:59;;;;;;;6.25;2.72;;;20.90;43.20;;;;;;4531862;31;20132;-63
2022/03/04 10:16:27;;;;;;;3.83;2.53;;;20.80;43.30;;;;;;4546958;31;20147;-62
2022/03/04 10:19:15;;;;;;;4.57;2.47;;;20.80;43.50;;;;;;4546604;31;20223;-65
2022/03/04 10:21:51;;;;;;;3.20;2.17;;;20.80;43.70;;;;;;4531540;31;20334;-62
2022/03/04 10:24:21;;;;;;;4.95;2.22;;;20.70;43.80;;;;;;4547435;31;20248;-63
2022/03/04 10:27:07;;;;;;;5.95;2.38;;;20.60;44.00;;;;;;4544337;31;20283;-62
2022/03/04 10:29:38;;;;;;;4.10;2.35;;;20.60;44.10;;;;;;4546822;31;20253;-63
2022/03/04 10:32:18;;;;;;;3.80;2.50;;;20.60;44.30;;;;;;4546940;31;20139;-64
2022/03/04 10:34:46;;;;;;;3.30;2.40;;;20.50;44.40;;;;;;4531351;31;20132;-64
2022/03/04 10:37:13;;;;;;;2.95;2.53;;;20.50;44.50;;;;;;4546768;31;20135;-65
2022/03/04 10:40:03;;;;;;;2.72;1.80;;;20.50;44.60;;;;;;4545620;31;20159;-63
2022/03/04 10:42:41;;;;;;;3.03;2.13;;;20.40;44.80;;;;;;4544950;31;20580;-64
2022/03/04 10:45:08;;;;;;;8.50;2.38;;;20.40;44.80;;;;;;4532407;31;20135;-63
2022/03/04 10:47:44;;;;;;;2.53;1.95;;;20.40;45.00;;;;;;4545715;31;20232;-61
2022/03/04 10:50:14;;;;;;;2.17;1.58;;;20.40;45.10;;;;;;4546882;31;20261;-63
2022/03/04 10:52:51;;;;;;;5.30;2.10;;;20.40;45.20;;;;;;4545744;31;20163;-62
2022/03/04 10:55:36;;;;;;;3.10;1.90;;;20.40;45.30;;;;;;4545646;31;20124;-62
2022/03/04 10:58:07;;;;;;;4.47;2.03;;;20.30;45.40;;;;;;4546900;31;20151;-63
2022/03/04 11:00:37;;;;;;;3.13;1.85;;;20.30;45.50;;;;;;4546244;31;20162;-61
2022/03/04 11:03:06;;;;;;;2.88;1.90;;;20.30;45.60;;;;;;4547391;31;20578;-62
2022/03/04 11:05:32;;;;;;;6.40;2.05;;;20.30;45.60;;;;;;4546373;31;20135;-62
2022/03/04 11:07:58;;;;;;;5.25;1.88;;;20.30;45.80;;;;;;4546899;31;20131;-61
2022/03/04 11:10:25;;;;;;;4.55;1.70;;;20.30;45.90;;;;;;4546461;31;20190;-62
2022/03/04 11:12:53;;;;;;;4.38;1.63;;;20.30;45.90;;;;;;4546564;31;20155;-61
2022/03/04 11:15:20;;;;;;;2.78;1.50;;;20.30;46.10;;;;;;4547344;31;20116;-61
2022/03/04 11:17:47;;;;;;;4.43;1.50;;;20.20;46.20;;;;;;4545483;31;20150;-62
2022/03/04 11:20:14;;;;;;;6.05;1.50;;;20.20;46.20;;;;;;4532664;31;20175;-63
2022/03/04 11:22:42;;;;;;;5.28;1.83;;;20.20;46.30;;;;;;4546044;31;20162;-63
2022/03/04 11:25:12;;;;;;;3.72;1.75;;;20.20;46.40;;;;;;4546634;31;20150;-63
2022/03/04 11:27:46;;;;;;;6.80;1.73;;;20.20;46.40;;;;;;4546763;31;20478;-62
2022/03/04 11:30:46;;;;;;;3.95;1.90;;;20.20;46.50;;;;;;4518140;31;20172;-62
2022/03/04 11:33:14;;;;;;;2.28;1.60;;;20.20;46.60;;;;;;4505407;31;20142;-61
2022/03/04 11:35:43;;;;;;;1.70;1.42;;;20.20;46.60;;;;;;4545465;31;20123;-61
2022/03/04 11:38:10;;;;;;;2.92;1.77;;;20.20;47.60;;;;;;4530642;31;20136;-61
2022/03/04 11:40:38;;;;;;;2.28;1.60;;;20.20;46.70;;;;;;4544976;31;20216;-62
2022/03/04 11:43:09;;;;;;;3.25;1.83;;;20.20;46.70;;;;;;4515220;31;20157;-61
2022/03/04 11:45:36;;;;;;;3.13;1.92;;;20.20;46.80;;;;;;4546320;31;20139;-62
2022/03/04 11:48:08;;;;;;;3.80;1.60;;;20.20;46.80;;;;;;4545486;31;20350;-64
2022/03/04 11:50:48;;;;;;;4.65;1.73;;;20.20;46.90;;;;;;4532051;31;20136;-61
2022/03/04 11:53:24;;;;;;;6.40;1.63;;;20.20;46.90;;;;;;4545406;31;20281;-62
2022/03/04 11:56:12;;;;;;;8.32;1.70;;;20.20;46.90;;;;;;4545762;31;20178;-63
2022/03/04 11:58:56;;;;;;;3.40;1.45;;;20.20;47.00;;;;;;4546770;31;20119;-61
2022/03/04 12:01:27;;;;;;;6.90;1.88;;;20.10;47.10;;;;;;4544690;31;20146;-63
2022/03/04 12:04:05;;;;;;;5.80;1.48;;;20.10;47.20;;;;;;4530566;31;20148;-63
2022/03/04 12:06:32;;;;;;;6.03;1.75;;;20.10;47.20;;;;;;4546250;31;20131;-63
2022/03/04 12:09:31;;;;;;;2.03;1.52;;;20.10;47.20;;;;;;4545397;31;20143;-63
2022/03/04 12:12:14;;;;;;;8.25;1.70;;;20.10;47.20;;;;;;4546009;31;20132;-60
2022/03/04 12:14:46;;;;;;;11.35;1.70;;;20.10;47.20;;;;;;4545832;31;20123;-63
2022/03/04 12:17:12;;;;;;;7.00;1.83;;;20.10;47.30;;;;;;4545199;31;20131;-64
2022/03/04 12:19:38;;;;;;;3.80;1.98;;;20.10;47.20;;;;;;4531855;31;20116;-65
2022/03/04 12:22:06;;;;;;;3.92;1.80;;;20.10;47.10;;;;;;4530820;31;20608;-64
2022/03/04 12:24:36;;;;;;;7.53;1.77;;;20.00;47.10;;;;;;4545634;31;20146;-62
2022/03/04 12:27:03;;;;;;;11.77;2.38;;;20.00;47.10;;;;;;4530748;31;20119;-63
2022/03/04 12:29:50;;;;;;;4.65;2.10;;;20.00;47.00;;;;;;4545714;31;20127;-62
2022/03/04 12:32:16;;;;;;;4.38;2.33;;;20.00;46.80;;;;;;4546055;31;20127;-63
2022/03/04 12:34:52;;;;;;;4.78;1.70;;;20.00;46.70;;;;;;4530429;31;20131;-63
2022/03/04 12:37:19;;;;;;;5.72;1.98;;;20.00;46.60;;;;;;4545841;31;20184;-63
2022/03/04 12:39:50;;;;;;;9.70;2.00;;;20.00;46.60;;;;;;4544992;31;20211;-63
2022/03/04 12:42:20;;;;;;;4.65;1.52;;;20.00;46.50;;;;;;4545411;31;20656;-63
2022/03/04 12:44:46;;;;;;;3.60;2.00;;;20.00;46.60;;;;;;4545619;31;20239;-63
2022/03/04 12:47:13;;;;;;;4.53;1.90;;;20.10;46.60;;;;;;4545096;31;20191;-63
2022/03/04 12:49:43;;;;;;;1.92;1.33;;;20.10;46.50;;;;;;4546270;31;20119;-63
2022/03/04 12:52:09;;;;;;;5.10;1.67;;;20.10;46.60;;;;;;4544836;31;20144;-63
2022/03/04 12:54:35;;;;;;;2.75;1.55;;;20.10;46.50;;;;;;4545872;31;20180;-63